Time;durP1;ratioP1;P1;durP2;ratioP2;P2;SDS_P1;SDS_P2;PMS_P1;PMS_P2;Temp;Humidity;BMP_temperature;BMP_pressure;BME280_temperature;BME280_humidity;BME280_pressure;Samples;Min_cycle;Max_cycle;Signal;HPM_P1;HPM_P2
2023/12/15 00:00:00;;;;;;;3.65;2.22;;;;;;;6.36;100.00;102875.94;5093267;27;96529;-27
2023/12/15 00:02:26;;;;;;;2.03;1.63;;;;;;;6.33;100.00;102866.97;5092353;27;99004;-28
2023/12/15 00:04:51;;;;;;;3.83;2.30;;;;;;;6.30;100.00;102872.41;5092308;27;99071;-28
2023/12/15 00:07:17;;;;;;;2.67;2.20;;;;;;;6.29;100.00;102871.53;5092135;27;96706;-28
2023/12/15 00:09:42;;;;;;;3.83;3.00;;;;;;;6.33;100.00;102875.94;5092507;27;96761;-28
2023/12/15 00:12:08;;;;;;;2.42;1.88;;;;;;;6.37;100.00;102879.50;5092162;27;97932;-27
2023/12/15 00:14:33;;;;;;;4.05;2.67;;;;;;;6.34;100.00;102876.81;5092209;27;97238;-27
2023/12/15 00:16:58;;;;;;;3.83;2.15;;;;;;;6.35;100.00;102876.81;5092379;27;96529;-27
2023/12/15 00:19:24;;;;;;;4.38;2.28;;;;;;;6.33;100.00;102873.25;5092215;27;96876;-27
2023/12/15 00:21:49;;;;;;;9.65;3.15;;;;;;;6.34;100.00;102884.91;5091980;27;99238;-28
2023/12/15 00:24:14;;;;;;;5.22;2.35;;;;;;;6.36;100.00;102891.16;5092401;27;103137;-28
2023/12/15 00:26:40;;;;;;;3.50;2.10;;;;;;;6.34;100.00;102896.56;5092113;27;97811;-30
2023/12/15 00:29:05;;;;;;;4.00;2.47;;;;;;;6.37;100.00;102915.38;5092057;27;96836;-27
2023/12/15 00:31:31;;;;;;;5.55;3.05;;;;;;;6.33;100.00;102910.94;5091319;27;98766;-28
2023/12/15 00:33:56;;;;;;;2.78;2.15;;;;;;;6.35;100.00;102917.19;5091752;27;98630;-28
2023/12/15 00:36:21;;;;;;;3.50;2.05;;;;;;;6.35;100.00;102917.19;5092011;27;96601;-27
2023/12/15 00:38:47;;;;;;;2.85;1.73;;;;;;;6.41;100.00;102920.72;5091927;27;96689;-27
2023/12/15 00:41:12;;;;;;;4.15;2.88;;;;;;;6.36;100.00;102904.63;5091095;27;97485;-29
2023/12/15 00:43:38;;;;;;;3.60;2.25;;;;;;;6.41;100.00;102905.44;5091779;27;97469;-28
2023/12/15 00:46:03;;;;;;;4.25;2.97;;;;;;;6.41;100.00;102905.44;5092169;27;96684;-28
2023/12/15 00:48:29;;;;;;;3.60;2.22;;;;;;;6.42;100.00;102904.56;5073494;27;96856;-28
2023/12/15 00:50:54;;;;;;;7.72;2.85;;;;;;;6.44;100.00;102915.31;5091084;27;105842;-27
2023/12/15 00:53:20;;;;;;;4.47;2.85;;;;;;;6.42;100.00;102918.03;5091847;27;98035;-28
2023/12/15 00:55:46;;;;;;;3.60;2.53;;;;;;;6.44;100.00;102907.25;5091722;27;96492;-28
2023/12/15 00:58:11;;;;;;;4.38;2.75;;;;;;;6.45;100.00;102917.97;5030963;27;1184460;-27
2023/12/15 01:00:37;;;;;;;3.72;1.83;;;;;;;6.44;100.00;102909.94;5092810;27;99541;-28
2023/12/15 01:03:02;;;;;;;3.70;2.70;;;;;;;6.45;100.00;102930.56;5093134;27;105620;-27
2023/12/15 01:05:27;;;;;;;5.25;2.47;;;;;;;6.47;100.00;102926.94;5093278;27;96415;-27
2023/12/15 01:07:53;;;;;;;5.95;3.33;;;;;;;6.43;100.00;102916.22;5093145;27;96792;-27
2023/12/15 01:10:19;;;;;;;4.00;2.00;;;;;;;6.47;100.00;102926.03;5074243;27;100991;-31
2023/12/15 01:12:44;;;;;;;3.80;2.60;;;;;;;6.45;100.00;102927.84;5093367;27;97597;-28
2023/12/15 01:15:10;;;;;;;6.22;2.92;;;;;;;6.49;100.00;102930.50;5092848;27;96633;-27
2023/12/15 01:17:35;;;;;;;3.88;2.63;;;;;;;6.49;100.00;102930.50;5093178;27;96857;-28
2023/12/15 01:20:00;;;;;;;4.38;2.83;;;;;;;6.52;100.00;102929.56;5092276;27;97968;-28
2023/12/15 01:22:26;;;;;;;4.30;2.92;;;;;;;6.49;100.00;102932.31;5092886;27;97871;-27
2023/12/15 01:24:51;;;;;;;2.97;2.00;;;;;;;6.50;100.00;102924.19;5093282;27;96519;-28
2023/12/15 01:27:16;;;;;;;4.53;3.08;;;;;;;6.48;100.00;102917.94;5092752;27;96876;-27
2023/12/15 01:29:42;;;;;;;3.83;2.33;;;;;;;6.47;100.00;102924.25;5092408;27;105259;-28
2023/12/15 01:32:07;;;;;;;3.58;2.40;;;;;;;6.47;100.00;102926.94;5092805;27;97796;-28
2023/12/15 01:34:32;;;;;;;3.10;2.15;;;;;;;6.47;100.00;102937.69;5074121;27;96799;-28
2023/12/15 01:36:58;;;;;;;4.38;2.05;;;;;;;6.52;100.00;102946.63;5092806;27;97618;-27
2023/12/15 01:39:23;;;;;;;3.05;2.17;;;;;;;6.51;100.00;102955.63;5092353;27;99306;-28
2023/12/15 01:41:48;;;;;;;2.80;1.55;;;;;;;6.45;100.00;102941.31;5092233;27;99232;-28
2023/12/15 01:44:14;;;;;;;5.47;3.00;;;;;;;6.46;100.00;102938.63;5092058;27;96729;-28
2023/12/15 01:46:39;;;;;;;4.25;1.95;;;;;;;6.40;100.00;102935.97;5092849;27;96818;-27
2023/12/15 01:49:05;;;;;;;3.80;2.45;;;;;;;6.45;100.00;102961.03;5092509;27;97879;-27
2023/12/15 01:51:30;;;;;;;6.15;3.33;;;;;;;6.43;100.00;102960.16;5093613;27;99263;-27
2023/12/15 01:53:55;;;;;;;4.32;2.55;;;;;;;6.45;100.00;102960.16;5096553;27;96814;-28
2023/12/15 01:56:22;;;;;;;5.57;3.17;;;;;;;6.45;100.00;102971.81;5095744;27;96819;-28
2023/12/15 01:58:47;;;;;;;3.60;2.55;;;;;;;6.43;100.00;102972.75;5095188;27;98009;-27
2023/12/15 02:01:13;;;;;;;3.53;2.05;;;;;;;6.45;100.00;102987.09;5096373;27;97296;-28
2023/12/15 02:03:38;;;;;;;2.67;2.20;;;;;;;6.46;100.00;102988.84;5095806;27;96614;-28
2023/12/15 02:06:03;;;;;;;6.18;2.35;;;;;;;6.42;100.00;102984.44;5095794;27;96858;-27
2023/12/15 02:08:29;;;;;;;2.65;1.58;;;;;;;6.40;100.00;102984.44;5095132;27;98166;-27
2023/12/15 02:10:54;;;;;;;5.88;2.92;;;;;;;6.41;100.00;102994.28;5095551;27;97355;-27
2023/12/15 02:13:20;;;;;;;3.00;2.10;;;;;;;6.40;100.00;103005.97;5095930;27;96580;-28
2023/12/15 02:15:45;;;;;;;4.32;2.22;;;;;;;6.40;100.00;103014.03;5096000;27;96747;-27
2023/12/15 02:18:11;;;;;;;3.95;2.55;;;;;;;6.44;100.00;103029.28;5095755;27;97984;-27
2023/12/15 02:20:36;;;;;;;5.63;2.45;;;;;;;6.45;100.00;103030.16;5076816;27;100781;-28
2023/12/15 02:23:02;;;;;;;4.63;2.65;;;;;;;6.41;100.00;103023.00;5095755;27;96627;-28
2023/12/15 02:25:27;;;;;;;3.55;2.30;;;;;;;6.46;100.00;103035.53;5077483;27;96948;-27
2023/12/15 02:27:53;;;;;;;5.55;2.67;;;;;;;6.45;100.00;103024.78;5095127;27;108973;-27
2023/12/15 02:30:19;;;;;;;2.28;1.85;;;;;;;6.42;100.00;103028.38;5076629;27;99020;-27
2023/12/15 02:32:44;;;;;;;4.30;2.28;;;;;;;6.46;100.00;103035.53;5094726;27;96647;-27
2023/12/15 02:35:11;;;;;;;3.90;2.53;;;;;;;6.48;100.00;103049.84;5095163;27;96917;-27
2023/12/15 02:37:37;;;;;;;4.15;2.25;;;;;;;6.44;100.00;103039.16;5076595;27;101097;-27
2023/12/15 02:40:03;;;;;;;3.05;2.22;;;;;;;6.47;100.00;103041.81;5094701;27;99387;-27
2023/12/15 02:42:29;;;;;;;5.25;1.85;;;;;;;6.47;100.00;103037.31;5076507;27;97660;-28
2023/12/15 02:44:54;;;;;;;3.20;1.95;;;;;;;6.46;100.00;103032.84;5095387;27;96867;-28
2023/12/15 02:47:19;;;;;;;5.53;1.73;;;;;;;6.48;100.00;103046.28;5095038;27;97516;-28
2023/12/15 02:49:44;;;;;;;2.53;2.05;;;;;;;6.48;100.00;103051.66;5095355;27;97760;-27
2023/12/15 02:52:10;;;;;;;2.80;1.92;;;;;;;6.52;100.00;103062.38;5095223;27;96572;-27
2023/12/15 02:54:35;;;;;;;2.97;2.28;;;;;;;6.50;100.00;103057.91;5094932;27;96842;-28
2023/12/15 02:57:01;;;;;;;4.28;2.65;;;;;;;6.52;100.00;103065.06;5094202;27;97362;-28
2023/12/15 02:59:26;;;;;;;6.32;2.97;;;;;;;6.50;100.00;103068.69;5076143;27;101135;-28
2023/12/15 03:01:51;;;;;;;2.75;1.77;;;;;;;6.47;100.00;103068.72;5094759;27;96583;-28
2023/12/15 03:04:16;;;;;;;2.42;1.60;;;;;;;6.52;100.00;103072.28;5094164;27;96820;-28
2023/12/15 03:06:42;;;;;;;4.07;2.50;;;;;;;6.54;100.00;103079.41;5094450;27;104907;-27
2023/12/15 03:09:07;;;;;;;2.97;2.17;;;;;;;6.50;100.00;103074.97;5094449;27;99132;-28
2023/12/15 03:11:33;;;;;;;4.53;2.67;;;;;;;6.53;100.00;103077.66;5094858;27;96486;-28
2023/12/15 03:13:58;;;;;;;4.15;2.53;;;;;;;6.48;100.00;103068.69;5076546;27;96877;-28
2023/12/15 03:16:24;;;;;;;3.13;2.13;;;;;;;6.53;100.00;103085.72;5094685;27;97400;-28
2023/12/15 03:18:50;;;;;;;3.60;2.30;;;;;;;6.50;100.00;103079.47;5094740;27;97772;-27
2023/12/15 03:21:15;;;;;;;5.70;1.63;;;;;;;6.50;100.00;103082.16;5075513;27;97740;-27
2023/12/15 03:23:40;;;;;;;4.13;2.20;;;;;;;6.52;100.00;103091.13;5094520;27;96795;-28
2023/12/15 03:26:06;;;;;;;3.80;1.73;;;;;;;6.54;100.00;103086.63;5094547;27;97654;-27
2023/12/15 03:28:31;;;;;;;3.47;2.40;;;;;;;6.52;100.00;103091.13;5093941;27;99430;-28
2023/12/15 03:30:57;;;;;;;2.70;2.00;;;;;;;6.55;100.00;103101.84;5094441;27;96686;-27
2023/12/15 03:33:25;;;;;;;4.50;2.80;;;;;;;6.56;100.00;103096.47;5094771;27;96769;-28
2023/12/15 03:35:52;;;;;;;2.20;1.90;;;;;;;6.56;100.00;103103.66;5094102;27;99006;-28
2023/12/15 03:38:18;;;;;;;2.55;1.83;;;;;;;6.54;100.00;103097.38;5094369;27;99490;-28
2023/12/15 03:40:44;;;;;;;2.60;1.77;;;;;;;6.54;100.00;103100.97;5075609;27;96627;-28
2023/12/15 03:43:09;;;;;;;6.35;2.70;;;;;;;6.57;100.00;103105.44;5094585;27;96755;-27
2023/12/15 03:45:34;;;;;;;2.95;2.20;;;;;;;6.58;100.00;103105.44;5093639;27;99666;-28
2023/12/15 03:48:00;;;;;;;8.43;2.30;;;;;;;6.61;100.00;103109.00;5093945;27;98662;-27
2023/12/15 03:50:25;;;;;;;5.68;1.92;;;;;;;6.63;100.00;103120.66;5093626;27;96893;-28
2023/12/15 03:52:51;;;;;;;4.65;2.55;;;;;;;6.65;100.00;103126.91;5093992;27;96827;-28
2023/12/15 03:55:17;;;;;;;2.38;2.00;;;;;;;6.65;100.00;103125.13;5093726;27;99450;-27
2023/12/15 03:57:42;;;;;;;1.90;1.55;;;;;;;6.59;100.00;103109.00;5074840;27;100747;-28
2023/12/15 04:00:08;;;;;;;3.35;2.13;;;;;;;6.63;100.00;103121.53;5094556;27;96582;-28
2023/12/15 04:02:34;;;;;;;5.85;2.45;;;;;;;6.60;100.00;103108.09;5075805;27;97084;-28
2023/12/15 04:05:00;;;;;;;4.15;2.30;;;;;;;6.66;100.00;103126.00;5075335;27;98764;-28
2023/12/15 04:07:25;;;;;;;4.57;2.50;;;;;;;6.63;100.00;103131.44;5074987;27;101045;-28
2023/12/15 04:09:51;;;;;;;3.40;1.85;;;;;;;6.56;100.00;103130.56;5093339;27;96597;-27
2023/12/15 04:12:17;;;;;;;3.10;1.55;;;;;;;6.65;100.00;103154.75;5075389;27;96857;-28
2023/12/15 04:14:42;;;;;;;5.78;2.42;;;;;;;6.62;100.00;103149.34;5093123;27;99423;-28
2023/12/15 04:17:08;;;;;;;5.22;1.45;;;;;;;6.65;100.00;103157.44;5094127;27;97266;-28
2023/12/15 04:19:33;;;;;;;4.57;2.58;;;;;;;6.57;100.00;103135.03;5093718;27;96476;-27
2023/12/15 04:21:58;;;;;;;3.15;1.77;;;;;;;6.64;100.00;103147.56;5093655;27;96903;-28
2023/12/15 04:24:25;;;;;;;4.63;2.50;;;;;;;6.68;100.00;103157.41;5093394;27;98925;-28
2023/12/15 04:26:51;;;;;;;3.92;2.33;;;;;;;6.63;100.00;103153.84;5075298;27;101236;-28
2023/12/15 04:29:16;;;;;;;4.05;2.65;;;;;;;6.65;100.00;103157.44;5074727;27;96817;-27
2023/12/15 04:31:41;;;;;;;3.53;2.08;;;;;;;6.65;100.00;103154.75;5093715;27;96755;-27
2023/12/15 04:34:07;;;;;;;4.25;2.10;;;;;;;6.66;100.00;103152.94;5093069;27;97891;-28
2023/12/15 04:36:32;;;;;;;3.53;2.63;;;;;;;6.69;100.00;103159.19;5093690;27;97230;-27
2023/12/15 04:38:58;;;;;;;4.82;1.75;;;;;;;6.65;100.00;103156.53;5093406;27;96748;-28
2023/12/15 04:41:24;;;;;;;3.83;2.08;;;;;;;6.68;100.00;103178.06;5093281;27;96981;-27
2023/12/15 04:43:50;;;;;;;3.63;1.83;;;;;;;6.61;100.00;103149.41;5074747;27;99245;-28
2023/12/15 04:46:28;;;;;;;4.70;2.50;;;;;;;6.66;100.00;103148.44;5074612;27;101024;-29
2023/12/15 04:48:55;;;;;;;3.30;1.15;;;;;;;6.62;100.00;103160.13;5074643;27;96666;-29
2023/12/15 04:51:21;;;;;;;3.58;2.60;;;;;;;6.67;100.00;103171.75;5057537;27;96874;-27
2023/12/15 04:53:48;;;;;;;3.97;2.10;;;;;;;6.66;100.00;103182.56;5074497;27;101136;-28
2023/12/15 04:56:13;;;;;;;2.70;1.88;;;;;;;6.66;100.00;103185.25;5074509;27;99112;-28
2023/12/15 04:58:39;;;;;;;3.50;2.20;;;;;;;6.67;100.00;103185.22;5073649;27;97629;-27
2023/12/15 05:01:05;;;;;;;3.33;2.60;;;;;;;6.65;100.00;103175.38;5093252;27;96693;-28
2023/12/15 05:03:31;;;;;;;2.65;1.90;;;;;;;6.69;100.00;103186.09;5092873;27;99447;-28
2023/12/15 05:05:56;;;;;;;5.00;2.50;;;;;;;6.68;100.00;103189.72;5074282;27;101536;-28
2023/12/15 05:08:22;;;;;;;2.58;1.90;;;;;;;6.68;100.00;103191.53;5092905;27;96631;-28
2023/12/15 05:10:47;;;;;;;4.10;2.83;;;;;;;6.65;100.00;103199.59;5093328;27;96799;-27
2023/12/15 05:13:12;;;;;;;3.38;2.47;;;;;;;6.65;100.00;103205.00;5093029;27;101012;-28
2023/12/15 05:15:38;;;;;;;4.28;1.95;;;;;;;6.66;100.00;103198.72;5093320;27;97356;-28
2023/12/15 05:18:04;;;;;;;7.15;1.63;;;;;;;6.67;100.00;103190.59;5093040;27;96746;-27
2023/12/15 05:20:29;;;;;;;4.05;2.65;;;;;;;6.66;100.00;103205.00;5092916;27;96748;-28
2023/12/15 05:22:54;;;;;;;2.60;2.03;;;;;;;6.68;100.00;103226.53;5092117;27;99342;-28
2023/12/15 05:25:20;;;;;;;6.57;2.55;;;;;;;6.66;100.00;103217.56;5092939;27;97403;-28
2023/12/15 05:27:45;;;;;;;3.20;2.08;;;;;;;6.71;100.00;103229.19;5096557;27;97684;-27
2023/12/15 05:30:12;;;;;;;3.38;2.28;;;;;;;6.72;100.00;103236.38;5096334;27;96796;-28
2023/12/15 05:32:37;;;;;;;4.63;2.67;;;;;;;6.69;100.00;103234.59;5077741;27;101050;-28
2023/12/15 05:35:04;;;;;;;4.15;2.63;;;;;;;6.68;100.00;103238.19;5077433;27;98835;-28
2023/12/15 05:37:30;;;;;;;4.57;2.65;;;;;;;6.72;100.00;103229.19;5077794;27;96674;-27
2023/12/15 05:39:57;;;;;;;4.32;1.63;;;;;;;6.73;100.00;103241.75;5096681;27;96822;-28
2023/12/15 05:42:22;;;;;;;2.80;2.17;;;;;;;6.72;100.00;103242.66;5096137;27;98024;-28
2023/12/15 05:44:48;;;;;;;3.08;1.65;;;;;;;6.67;100.00;103220.22;5095875;27;99026;-27
2023/12/15 05:47:13;;;;;;;3.78;1.92;;;;;;;6.72;100.00;103234.59;5095458;27;96625;-27
2023/12/15 05:49:41;;;;;;;4.13;2.63;;;;;;;6.73;100.00;103228.28;5095393;27;96868;-27
2023/12/15 05:52:10;;;;;;;3.60;2.03;;;;;;;6.74;100.00;103224.66;5096017;27;97994;-28
2023/12/15 05:54:42;;;;;;;3.10;1.90;;;;;;;6.76;100.00;103238.13;5077361;27;100793;-27
2023/12/15 05:57:07;;;;;;;2.20;1.20;;;;;;;6.74;100.00;103230.06;5095666;27;96640;-27
2023/12/15 05:59:33;;;;;;;2.78;2.03;;;;;;;6.76;100.00;103239.03;5077579;27;96805;-27
2023/12/15 06:01:58;;;;;;;5.15;2.65;;;;;;;6.77;100.00;103248.03;5095726;27;99347;-28
2023/12/15 06:04:24;;;;;;;4.25;1.92;;;;;;;6.75;100.00;103250.72;5096449;27;97378;-28
2023/12/15 06:06:50;;;;;;;4.82;1.80;;;;;;;6.71;100.00;103240.88;5095819;27;96641;-29
2023/12/15 06:09:15;;;;;;;2.38;2.00;;;;;;;6.76;100.00;103257.88;5095853;27;96776;-28
2023/12/15 06:11:42;;;;;;;3.13;2.22;;;;;;;6.77;100.00;103257.00;5095184;27;97437;-29
2023/12/15 06:14:10;;;;;;;3.03;1.80;;;;;;;6.74;100.00;103248.91;5076939;27;98889;-28
2023/12/15 06:16:35;;;;;;;2.88;1.75;;;;;;;6.75;100.00;103258.81;5077073;27;96792;-30
2023/12/15 06:19:01;;;;;;;2.75;1.67;;;;;;;6.77;100.00;103267.78;5095313;27;96829;-28
2023/12/15 06:21:27;;;;;;;5.65;1.73;;;;;;;6.75;100.00;103260.59;5095280;27;99358;-28
2023/12/15 06:23:53;;;;;;;4.88;2.40;;;;;;;6.75;100.00;103266.88;5095607;27;97399;-28
2023/12/15 06:26:26;;;;;;;3.42;2.22;;;;;;;6.78;100.00;103271.34;5077071;27;96745;-27
2023/12/15 06:28:55;;;;;;;8.60;1.30;;;;;;;6.75;100.00;103264.19;5076870;27;96857;-28
2023/12/15 06:31:21;;;;;;;2.83;2.10;;;;;;;6.74;100.00;103257.00;5076471;27;100926;-27
2023/12/15 06:33:47;;;;;;;2.30;1.77;;;;;;;6.78;100.00;103271.34;5076657;27;101030;-27
2023/12/15 06:36:13;;;;;;;1.88;1.58;;;;;;;6.72;100.00;103264.22;5095106;27;96477;-27
2023/12/15 06:38:44;;;;;;;2.50;1.52;;;;;;;6.76;100.00;103274.03;5095326;27;96817;-28
2023/12/15 06:41:11;;;;;;;2.08;1.58;;;;;;;6.77;100.00;103275.84;5095017;27;99679;-28
2023/12/15 06:43:41;;;;;;;3.03;1.95;;;;;;;6.76;100.00;103282.13;5076464;27;98820;-28
2023/12/15 06:46:06;;;;;;;2.88;1.80;;;;;;;6.80;100.00;103297.38;5076351;27;96672;-28
2023/12/15 06:48:32;;;;;;;1.42;1.33;;;;;;;6.78;100.00;103293.78;5076470;27;96921;-28
2023/12/15 06:50:57;;;;;;;4.15;2.03;;;;;;;6.83;100.00;103304.53;5094749;27;98128;-28
2023/12/15 06:53:22;;;;;;;3.05;2.03;;;;;;;6.77;100.00;103318.94;5095085;27;107715;-28
2023/12/15 06:55:48;;;;;;;2.78;2.10;;;;;;;6.79;100.00;103330.63;5094707;27;100032;-28
2023/12/15 06:58:13;;;;;;;1.65;1.40;;;;;;;6.81;100.00;103327.88;5094774;27;100249;-28
2023/12/15 07:00:39;;;;;;;2.63;1.73;;;;;;;6.79;100.00;103321.59;5094312;27;98077;-28
2023/12/15 07:03:04;;;;;;;1.52;1.30;;;;;;;6.80;100.00;103318.91;5095108;27;97792;-28
2023/12/15 07:05:30;;;;;;;3.28;2.17;;;;;;;6.83;100.00;103323.38;5095325;27;96667;-28
2023/12/15 07:07:55;;;;;;;2.63;1.52;;;;;;;6.81;100.00;103330.59;5094930;27;96855;-27
2023/12/15 07:10:21;;;;;;;2.30;1.65;;;;;;;6.83;100.00;103333.28;5094551;27;98349;-28
2023/12/15 07:12:46;;;;;;;19.05;2.38;;;;;;;6.87;100.00;103335.06;5094677;27;98285;-28
2023/12/15 07:15:11;;;;;;;3.03;1.67;;;;;;;6.80;100.00;103321.63;5094633;27;96684;-28
2023/12/15 07:17:37;;;;;;;2.67;1.30;;;;;;;6.86;100.00;103342.22;5095271;27;96770;-28
2023/12/15 07:20:04;;;;;;;3.88;1.58;;;;;;;6.87;100.00;103329.66;5094392;27;107249;-28
2023/12/15 07:22:29;;;;;;;4.28;1.58;;;;;;;6.87;100.00;103335.06;5075510;27;100909;-28
2023/12/15 07:24:55;;;;;;;3.08;1.83;;;;;;;6.83;100.00;103336.84;5094134;27;96781;-27
2023/12/15 07:27:20;;;;;;;2.33;1.60;;;;;;;6.81;100.00;103331.47;5094629;27;96866;-27
2023/12/15 07:29:45;;;;;;;1.67;1.27;;;;;;;6.84;100.00;103338.66;5093699;27;98018;-29
2023/12/15 07:32:11;;;;;;;1.58;1.10;;;;;;;6.86;100.00;103349.41;5094126;27;102484;-29
2023/12/15 07:34:36;;;;;;;2.75;1.40;;;;;;;6.88;100.00;103353.88;5094242;27;101057;-28
2023/12/15 07:37:01;;;;;;;3.13;1.52;;;;;;;6.85;100.00;103358.41;5094689;27;96754;-28
2023/12/15 07:39:26;;;;;;;2.83;1.65;;;;;;;6.89;100.00;103357.47;5094215;27;99343;-28
2023/12/15 07:41:52;;;;;;;2.85;1.35;;;;;;;6.85;100.00;103353.91;5094346;27;105243;-27
2023/12/15 07:44:17;;;;;;;3.72;1.58;;;;;;;6.87;100.00;103367.38;5093168;27;96807;-29
2023/12/15 07:46:43;;;;;;;2.33;1.63;;;;;;;6.87;100.00;103368.28;5092541;27;97084;-29
2023/12/15 07:49:09;;;;;;;1.00;0.85;;;;;;;6.88;100.00;103361.09;5071825;27;100938;-31
2023/12/15 07:51:34;;;;;;;5.05;1.38;;;;;;;6.87;100.00;103365.59;5091903;27;97157;-32
2023/12/15 07:54:00;;;;;;;5.95;1.88;;;;;;;6.87;100.00;103365.59;5091904;27;97225;-30
2023/12/15 07:56:27;;;;;;;2.30;1.02;;;;;;;6.93;100.00;103391.59;5092182;27;96800;-29
2023/12/15 07:58:53;;;;;;;4.75;1.67;;;;;;;6.90;100.00;103395.19;5072503;27;98142;-28
2023/12/15 08:01:20;;;;;;;2.15;1.05;;;;;;;6.93;100.00;103407.75;5093898;27;99364;-28
2023/12/15 08:03:46;;;;;;;1.92;1.48;;;;;;;6.92;100.00;103403.28;5075335;27;96721;-28
2023/12/15 08:06:13;;;;;;;1.85;1.15;;;;;;;6.89;100.00;103400.56;5075789;27;96841;-28
2023/12/15 08:08:39;;;;;;;1.92;1.45;;;;;;;6.90;100.00;103405.06;5093517;27;99444;-28
2023/12/15 08:11:05;;;;;;;1.90;1.17;;;;;;;6.90;100.00;103405.06;5075115;27;100770;-28
2023/12/15 08:13:30;;;;;;;5.35;1.13;;;;;;;6.96;100.00;103426.59;5093381;27;96800;-27
2023/12/15 08:15:56;;;;;;;2.20;1.15;;;;;;;6.98;100.00;103422.09;5093908;27;96760;-28
2023/12/15 08:18:21;;;;;;;1.88;1.08;;;;;;;6.98;100.00;103431.09;5093357;27;99239;-27
2023/12/15 08:20:47;;;;;;;12.15;1.30;;;;;;;6.99;100.00;103432.88;5093671;27;97364;-28
2023/12/15 08:23:13;;;;;;;2.75;0.85;;;;;;;7.00;100.00;103440.03;5074940;27;96755;-28
2023/12/15 08:25:38;;;;;;;5.50;1.95;;;;;;;6.95;100.00;103430.19;5093951;27;97317;-28
2023/12/15 08:28:04;;;;;;;7.22;1.38;;;;;;;7.02;100.00;103445.44;5092888;27;103718;-28
2023/12/15 08:30:29;;;;;;;1.48;0.95;;;;;;;7.01;100.00;103441.84;5093481;27;98667;-27
2023/12/15 08:32:55;;;;;;;1.90;1.13;;;;;;;7.05;100.00;103447.22;5093483;27;96695;-29
2023/12/15 08:35:20;;;;;;;3.05;1.10;;;;;;;7.05;100.00;103458.88;5093674;27;96774;-28
2023/12/15 08:37:46;;;;;;;1.00;0.70;;;;;;;6.96;100.00;103451.75;5092716;27;99406;-28
2023/12/15 08:40:11;;;;;;;2.63;0.80;;;;;;;7.00;100.00;103450.81;5093706;27;97797;-28
2023/12/15 08:42:37;;;;;;;2.05;1.25;;;;;;;7.02;100.00;103461.59;5092950;27;96684;-28
2023/12/15 08:45:02;;;;;;;3.13;1.60;;;;;;;7.07;100.00;103473.25;5093692;27;96794;-29
2023/12/15 08:47:28;;;;;;;0.65;0.63;;;;;;;7.10;100.00;103477.72;5093419;27;97995;-27
2023/12/15 08:49:53;;;;;;;6.05;1.40;;;;;;;7.08;100.00;103480.44;5092937;27;98151;-28
2023/12/15 08:52:18;;;;;;;1.80;1.08;;;;;;;7.09;100.00;103476.84;5093147;27;100119;-29
2023/12/15 08:54:44;;;;;;;1.90;1.08;;;;;;;7.11;100.00;103479.53;5093797;27;96760;-28
2023/12/15 08:57:09;;;;;;;1.63;1.00;;;;;;;7.07;100.00;103467.88;5092447;27;98856;-27
2023/12/15 08:59:34;;;;;;;1.05;0.73;;;;;;;7.15;100.00;103486.69;5092932;27;99490;-28
2023/12/15 09:02:00;;;;;;;2.08;0.85;;;;;;;7.10;100.00;103481.31;5095192;27;96477;-27
2023/12/15 09:04:25;;;;;;;0.77;0.73;;;;;;;7.14;100.00;103488.50;5096946;27;96809;-27
2023/12/15 09:06:51;;;;;;;1.35;0.98;;;;;;;7.18;100.00;103490.28;5096756;27;97383;-27
2023/12/15 09:09:16;;;;;;;1.15;0.82;;;;;;;7.16;100.00;103489.38;5096281;27;99873;-27
2023/12/15 09:11:41;;;;;;;6.50;1.27;;;;;;;7.18;100.00;103494.78;5096349;27;96645;-28
2023/12/15 09:14:07;;;;;;;1.77;1.10;;;;;;;7.20;100.00;103501.06;5096504;27;96886;-28
2023/12/15 09:16:32;;;;;;;2.15;1.38;;;;;;;7.15;100.00;103494.78;5096787;27;97505;-28
2023/12/15 09:18:58;;;;;;;3.20;1.00;;;;;;;7.27;100.00;103518.09;5096747;27;99252;-28
2023/12/15 09:21:23;;;;;;;0.73;0.60;;;;;;;7.23;100.00;103510.03;5096733;27;96497;-27
2023/12/15 09:23:49;;;;;;;1.63;1.02;;;;;;;7.28;100.00;103519.88;5096656;27;96536;-27
2023/12/15 09:26:14;;;;;;;1.90;1.17;;;;;;;7.29;100.00;103533.34;5095961;27;97849;-28
2023/12/15 09:28:39;;;;;;;0.68;0.68;;;;;;;7.29;100.00;103529.75;5096092;27;98225;-28
2023/12/15 09:31:05;;;;;;;2.47;1.58;;;;;;;7.36;100.00;103548.59;5096500;27;96469;-28
2023/12/15 09:33:30;;;;;;;1.85;1.13;;;;;;;7.37;100.00;103552.22;5096645;27;96776;-28
2023/12/15 09:35:56;;;;;;;3.08;1.08;;;;;;;7.40;100.00;103557.56;5096415;27;97926;-27
2023/12/15 09:38:21;;;;;;;2.38;0.88;;;;;;;7.41;100.00;103564.75;5096166;27;99215;-28
2023/12/15 09:40:47;;;;;;;9.52;0.95;;;;;;;7.37;100.00;103555.78;5096117;27;96441;-28
2023/12/15 09:43:13;;;;;;;1.75;0.88;;;;;;;7.44;100.00;103572.84;5096475;27;96573;-28
2023/12/15 09:45:39;;;;;;;3.63;1.40;;;;;;;7.44;100.00;103578.25;5095931;27;98994;-28
2023/12/15 09:48:06;;;;;;;2.38;1.08;;;;;;;7.44;100.00;103580.94;5096068;27;97297;-28
2023/12/15 09:50:33;;;;;;;2.33;1.02;;;;;;;7.50;100.00;103575.50;5076725;27;97241;-28
2023/12/15 09:53:02;;;;;;;3.30;1.58;;;;;;;7.51;100.00;103581.78;5077523;27;97176;-28
2023/12/15 09:55:30;;;;;;;3.33;1.17;;;;;;;7.49;100.00;103576.41;5077128;27;101143;-29
2023/12/15 09:57:57;;;;;;;2.20;1.13;;;;;;;7.53;100.00;103594.38;5076845;27;100559;-29
2023/12/15 10:00:23;;;;;;;2.78;1.05;;;;;;;7.50;100.00;103601.59;5095946;27;96615;-29
2023/12/15 10:02:48;;;;;;;1.33;0.90;;;;;;;7.55;100.00;103619.53;5096443;27;97073;-28
2023/12/15 10:05:15;;;;;;;1.05;0.80;;;;;;;7.52;100.00;103626.75;5095626;27;99239;-28
2023/12/15 10:07:40;;;;;;;1.75;0.80;;;;;;;7.54;100.00;103636.63;5077364;27;100580;-27
2023/12/15 10:10:06;;;;;;;1.25;0.88;;;;;;;7.55;100.00;103633.00;5095477;27;96774;-29
2023/12/15 10:12:31;;;;;;;1.38;1.20;;;;;;;7.61;100.00;103641.09;5095615;27;96760;-28
2023/12/15 10:14:57;;;;;;;1.13;0.55;;;;;;;7.59;100.00;103636.59;5095333;27;97912;-28
2023/12/15 10:17:22;;;;;;;0.57;0.52;;;;;;;7.68;100.00;103636.56;5095601;27;97786;-27
2023/12/15 10:19:48;;;;;;;6.38;0.90;;;;;;;7.72;100.00;103650.94;5095876;27;96669;-29
2023/12/15 10:22:13;;;;;;;2.17;0.70;;;;;;;7.77;100.00;103646.41;5077066;27;96881;-28
2023/12/15 10:24:39;;;;;;;3.22;0.82;;;;;;;7.81;100.00;103653.59;5095392;27;97954;-29
2023/12/15 10:27:07;;;;;;;2.30;0.95;;;;;;;7.78;100.00;103640.13;5095646;27;97355;-28
2023/12/15 10:29:33;;;;;;;1.00;0.60;;;;;;;7.81;100.00;103657.19;5076627;27;96818;-30
2023/12/15 10:31:58;;;;;;;1.80;0.77;;;;;;;7.76;100.00;103650.03;5095884;27;96805;-27
2023/12/15 10:34:25;;;;;;;2.63;0.95;;;;;;;7.84;100.00;103658.97;5095075;27;99312;-28
2023/12/15 10:36:52;;;;;;;0.63;0.38;;;;;;;7.87;100.00;103661.66;5095291;27;97439;-28
2023/12/15 10:39:17;;;;;;;1.15;0.52;;;;;;;7.88;100.00;103663.44;5094719;27;96488;-28
2023/12/15 10:41:44;;;;;;;1.38;0.63;;;;;;;7.84;100.00;103640.06;5076806;27;96949;-27
2023/12/15 10:44:13;;;;;;;2.03;0.65;;;;;;;7.93;100.00;103664.31;5076469;27;101167;-28
2023/12/15 10:46:42;;;;;;;3.08;0.65;;;;;;;7.93;100.00;103669.72;5076392;27;100939;-28
2023/12/15 10:49:09;;;;;;;1.15;0.70;;;;;;;7.98;100.00;103685.88;5095139;27;96598;-28
2023/12/15 10:51:40;;;;;;;1.45;0.45;;;;;;;7.96;100.00;103679.59;5094936;27;96786;-28
2023/12/15 10:54:06;;;;;;;1.90;0.57;;;;;;;7.99;100.00;103682.31;5076471;27;101026;-28
2023/12/15 10:56:32;;;;;;;5.20;0.77;;;;;;;8.01;100.00;103686.78;5076700;27;101365;-29
2023/12/15 10:58:59;;;;;;;1.35;0.60;;;;;;;8.10;100.00;103693.91;5094760;27;96842;-27
2023/12/15 11:01:27;;;;;;;0.43;0.43;;;;;;;8.10;100.00;103685.81;5076348;27;96974;-28
2023/12/15 11:03:52;;;;;;;0.95;0.73;;;;;;;8.15;100.00;103696.59;5075710;27;100909;-27
2023/12/15 11:06:31;;;;;;;0.57;0.35;;;;;;;8.09;100.00;103670.53;5094377;27;98939;-28
2023/12/15 11:09:01;;;;;;;1.73;0.43;;;;;;;8.20;100.00;103692.06;5076110;27;96626;-27
2023/12/15 11:11:29;;;;;;;0.73;0.20;;;;;;;8.20;100.00;103678.56;5076294;27;96866;-27
2023/12/15 11:14:01;;;;;;;0.77;0.47;;;;;;;8.27;100.00;103674.91;5076112;27;100970;-28
2023/12/15 11:16:29;;;;;;;3.30;0.50;;;;;;;8.30;100.00;103666.81;5076123;27;101119;-28